Soap Lake, WA (98851)

9:59 AM PST on December 18, 2014 (GMT -0800)
Adrian | Change Station
CLOSE
Current Station
Personal Weather Station
Location: Soap Lake, WA
Elevation: 1201 ft
Nearby Weather Stations
Active Advisory: Air Stagnation Advisory

Elev 1201 ft 47.39 °N, 119.38 °W | Updated 14 seconds ago

Fog
Fog
37.6 °F
Feels Like 38 °F
N
0.0
Wind Variable Wind from SSE
Gusts 0.0 mph

Today
High -- | Low -- °F
--% Chance of Precip.
Yesterday
High -- | Low -- °F
Precip. -- in
7:40 AM 4:08 PM
Waning Crescent, 13% visible
Pressure 30.05 in
Visibility 2.5 miles
Clouds Overcast 300 ft
Windchill 38 °F
Dew Point 37 °F
Humidity 98%
Rainfall 0.00 in
Snow Depth Not available.
UV 0 out of 12
Pollen .50 out of 12
Air Quality Not available.
Flu Activity Not available.
METAR KEPH 181753Z AUTO 16005KT 2 1/2SM BR OVC003 03/02 A3002 RMK AO2 SLP174 T00280022 10028 20022 53008

More Conditions Fewer Conditions

Pressure 30.05 in
Visibility 2.5 miles
Clouds Overcast 300 ft
Windchill 38 °F
Dew Point 37 °F
Humidity 98%
Rainfall 0.00 in
Snow Depth Not available.
UV 0 out of 12
Pollen .50 out of 12
Air Quality Not available.
Flu Activity Not available.
METAR KEPH 181753Z AUTO 16005KT 2 1/2SM BR OVC003 03/02 A3002 RMK AO2 SLP174 T00280022 10028 20022 53008

More Conditions Fewer Conditions

Nowcast | as of 8:33 am PST on December 18, 2014

Areas of dense fog have been noted throughout the Columbia Basin and onto the Waterville Plateau. Visibilities at or below one quarter of a mile will be possible leading to difficult driving conditions. Expect areas of dense fog to be present through at least 10 am this morning.

×

10-Day Weather Forecast

Almanac

Astronomy

Dec. 18, 2014 Rise Set
Actual Time
Civil Twilight
Nautical Twilight
Astronomical Twilight
Moon
Length of Visible Light
Length of Day
Tomorrow will be .
, % of the Moon is Illuminated

Today's Extremes

State Highs State Lows

Community

WunderPhotos

Upload Photos

1,778,969 photos uploaded!

WunderBlogs® & News

Nearby

Air Quality

  Air Quality AQ Index Pollutant
Not available.

Snow Depth

Station Depth Elevation

Earthquake Activity

City Distance Mag. Time & Date
Minimum magnitude displayed is 2.5.

Coastal Water Temperatures

Place Temperature

Nearby Weather Stations